createdAt,value
2022-12-11T00:00:58.232Z,19.13
2022-12-11T00:03:25.744Z,20.67
2022-12-11T00:05:52.798Z,14.35
2022-12-11T00:08:19.914Z,31.30
2022-12-11T00:10:50.730Z,15.68
2022-12-11T00:13:18.013Z,12.35
2022-12-11T00:15:44.988Z,19.10
2022-12-11T00:18:14.199Z,14.85
2022-12-11T00:20:41.277Z,18.70
2022-12-11T00:23:08.492Z,10.93
2022-12-11T00:25:35.663Z,13.32
2022-12-11T00:28:02.889Z,24.17
2022-12-11T00:30:29.847Z,18.35
2022-12-11T00:32:57.083Z,14.95
2022-12-11T00:35:24.047Z,19.35
2022-12-11T00:37:51.318Z,15.35
2022-12-11T00:40:18.343Z,18.40
2022-12-11T00:42:45.414Z,15.85
2022-12-11T00:45:12.801Z,14.50
2022-12-11T00:47:40.012Z,28.13
2022-12-11T00:50:07.871Z,21.92
2022-12-11T00:52:34.999Z,27.55
2022-12-11T00:55:02.127Z,23.42
2022-12-11T00:57:29.196Z,19.85
2022-12-11T00:59:56.318Z,23.40
2022-12-11T01:02:23.369Z,22.80
2022-12-11T01:04:50.573Z,32.17
2022-12-11T01:07:17.584Z,21.83
2022-12-11T01:10:03.158Z,19.95
2022-12-11T01:12:30.215Z,18.05
2022-12-11T01:14:57.257Z,18.17
2022-12-11T01:17:24.560Z,20.67
2022-12-11T01:19:54.439Z,25.20
2022-12-11T01:22:22.275Z,18.52
2022-12-11T01:24:49.482Z,18.98
2022-12-11T01:27:16.634Z,22.80
2022-12-11T01:29:43.705Z,22.08
2022-12-11T01:32:10.755Z,25.63
2022-12-11T01:34:37.868Z,23.08
2022-12-11T01:37:05.369Z,17.52
2022-12-11T01:39:32.369Z,22.80
2022-12-11T01:42:01.242Z,19.35
2022-12-11T01:44:31.085Z,31.33
2022-12-11T01:46:58.651Z,21.63
2022-12-11T01:49:27.608Z,23.35
2022-12-11T01:52:10.746Z,17.48
2022-12-11T01:54:37.931Z,29.70
2022-12-11T01:57:08.933Z,15.38
2022-12-11T01:59:39.301Z,27.67
2022-12-11T02:02:26.132Z,27.92
2022-12-11T02:04:53.115Z,21.02
2022-12-11T02:07:20.504Z,26.95
2022-12-11T02:09:48.587Z,28.10
2022-12-11T02:12:18.707Z,22.73
2022-12-11T02:15:30.092Z,14.60
2022-12-11T02:18:19.237Z,27.35
2022-12-11T02:21:18.379Z,21.75
2022-12-11T02:24:14.500Z,17.95
2022-12-11T02:27:09.179Z,19.13
2022-12-11T02:29:39.743Z,22.55
2022-12-11T02:32:16.843Z,18.30
2022-12-11T02:34:52.000Z,24.70
2022-12-11T02:37:23.274Z,16.70
2022-12-11T02:39:53.414Z,14.88
2022-12-11T02:42:23.443Z,17.45
2022-12-11T02:44:52.651Z,12.43
2022-12-11T02:47:21.467Z,24.52
2022-12-11T02:49:50.738Z,20.00
2022-12-11T02:52:22.172Z,20.42
2022-12-11T02:54:51.992Z,20.00
2022-12-11T02:57:38.187Z,19.10
2022-12-11T03:00:06.590Z,14.07
2022-12-11T03:02:34.198Z,17.95
2022-12-11T03:05:01.357Z,12.68
2022-12-11T03:07:33.576Z,9.52
2022-12-11T03:10:01.152Z,8.18
2022-12-11T03:12:31.638Z,17.88
2022-12-11T03:15:05.344Z,21.38
2022-12-11T03:17:44.833Z,12.30
2022-12-11T03:20:33.495Z,7.82
2022-12-11T03:23:30.810Z,10.93
2022-12-11T03:26:03.550Z,14.20
2022-12-11T03:28:36.557Z,14.20
2022-12-11T03:31:08.922Z,13.88
2022-12-11T03:33:40.804Z,15.25
2022-12-11T03:36:20.765Z,10.85
2022-12-11T03:38:58.155Z,12.63
2022-12-11T03:41:28.299Z,13.70
2022-12-11T03:43:58.676Z,7.90
2022-12-11T03:46:34.451Z,10.48
2022-12-11T03:49:07.762Z,8.98
2022-12-11T03:51:35.894Z,19.58
2022-12-11T03:54:03.895Z,20.13
2022-12-11T03:56:34.382Z,14.45
2022-12-11T03:59:01.965Z,10.37
2022-12-11T04:01:29.151Z,11.65
2022-12-11T04:03:56.495Z,13.32
2022-12-11T04:06:23.540Z,10.88
2022-12-11T04:08:50.590Z,11.98
2022-12-11T04:11:50.044Z,12.57
2022-12-11T04:14:36.087Z,9.77
2022-12-11T04:17:03.005Z,7.05
2022-12-11T04:19:48.464Z,10.55
2022-12-11T04:22:36.393Z,9.82
2022-12-11T04:25:06.519Z,10.50
2022-12-11T04:27:48.997Z,14.88
2022-12-11T04:30:22.828Z,15.88
2022-12-11T04:32:50.901Z,16.10
2022-12-11T04:35:18.860Z,15.25
2022-12-11T04:37:46.327Z,20.13
2022-12-11T04:40:16.570Z,37.05
2022-12-11T04:42:44.170Z,12.68
2022-12-11T04:45:12.565Z,18.65
2022-12-11T04:47:40.722Z,15.20
2022-12-11T04:50:13.548Z,15.18
2022-12-11T04:52:40.899Z,15.70
2022-12-11T04:55:09.154Z,7.05
2022-12-11T04:57:36.677Z,11.48
2022-12-11T05:00:09.924Z,14.13
2022-12-11T05:02:38.640Z,15.50
2022-12-11T05:05:09.932Z,14.43
2022-12-11T05:07:38.022Z,22.05
2022-12-11T05:10:06.123Z,14.07
2022-12-11T05:12:33.858Z,11.85
2022-12-11T05:15:00.976Z,14.50
2022-12-11T05:17:28.029Z,17.40
2022-12-11T05:20:04.563Z,13.38
2022-12-11T05:23:02.205Z,12.90
2022-12-11T05:25:33.647Z,12.93
2022-12-11T05:28:00.573Z,21.83
2022-12-11T05:30:27.805Z,13.18
2022-12-11T05:32:54.947Z,13.50
2022-12-11T05:35:22.122Z,11.80
2022-12-11T05:37:51.549Z,19.00
2022-12-11T05:40:19.215Z,11.07
2022-12-11T05:42:46.533Z,18.08
2022-12-11T05:45:17.459Z,13.77
2022-12-11T05:47:44.693Z,13.45
2022-12-11T05:50:11.903Z,17.23
2022-12-11T05:52:42.040Z,10.75
2022-12-11T05:55:10.295Z,9.30
2022-12-11T05:57:50.711Z,12.88
2022-12-11T06:00:23.084Z,7.20
2022-12-11T06:02:54.390Z,15.18
2022-12-11T06:05:22.329Z,12.00
2022-12-11T06:07:49.981Z,12.68
2022-12-11T06:10:17.760Z,13.13
2022-12-11T06:12:44.934Z,8.88
2022-12-11T06:15:15.101Z,11.43
2022-12-11T06:17:42.705Z,14.82
2022-12-11T06:20:11.086Z,10.25
2022-12-11T06:22:38.519Z,13.02
2022-12-11T06:25:10.000Z,20.83
2022-12-11T06:27:37.564Z,9.35
2022-12-11T06:30:05.326Z,15.00
2022-12-11T06:32:32.815Z,11.85
2022-12-11T06:34:59.868Z,15.57
2022-12-11T06:37:27.257Z,15.70
2022-12-11T06:39:59.525Z,15.98
2022-12-11T06:42:27.298Z,16.65
2022-12-11T06:44:56.774Z,15.32
2022-12-11T06:47:27.930Z,12.45
2022-12-11T06:49:56.686Z,14.05
2022-12-11T06:52:28.022Z,11.98
2022-12-11T06:57:25.195Z,14.32
2022-12-11T06:59:53.968Z,16.63
2022-12-11T07:02:21.994Z,17.00
2022-12-11T07:04:54.784Z,18.50
2022-12-11T07:07:22.782Z,16.55
2022-12-11T07:09:49.904Z,20.25
2022-12-11T07:12:20.582Z,27.45
2022-12-11T07:14:47.715Z,25.65
2022-12-11T07:17:15.328Z,28.80
2022-12-11T07:19:43.511Z,24.48
2022-12-11T07:22:11.598Z,14.45
2022-12-11T07:24:39.590Z,18.73
2022-12-11T07:27:06.611Z,24.65
2022-12-11T07:29:36.798Z,17.00
2022-12-11T07:32:05.072Z,11.20
2022-12-11T07:34:32.884Z,12.25
2022-12-11T07:37:00.535Z,11.95
2022-12-11T07:39:28.419Z,12.82
2022-12-11T07:41:55.838Z,10.07
2022-12-11T07:44:23.463Z,11.35
2022-12-11T07:46:51.099Z,20.88
2022-12-11T07:49:18.941Z,7.28
2022-12-11T07:51:52.076Z,10.02
2022-12-11T07:54:21.080Z,12.05
2022-12-11T07:56:54.006Z,8.93
2022-12-11T07:59:26.423Z,8.63
2022-12-11T08:01:56.395Z,16.08
2022-12-11T08:04:26.465Z,14.75
2022-12-11T08:06:53.812Z,15.35
2022-12-11T08:09:22.805Z,6.85
2022-12-11T08:11:51.081Z,16.52
2022-12-11T08:14:19.981Z,16.10
2022-12-11T08:16:47.200Z,13.07
2022-12-11T08:19:15.229Z,16.17
2022-12-11T08:21:45.357Z,13.27
2022-12-11T08:24:13.414Z,8.40
2022-12-11T08:26:41.227Z,9.43
2022-12-11T08:29:11.655Z,13.57
2022-12-11T08:31:40.691Z,12.10
2022-12-11T08:34:08.098Z,13.38
2022-12-11T08:36:36.007Z,11.32
2022-12-11T08:39:04.762Z,9.70
2022-12-11T08:41:32.306Z,10.15
2022-12-11T08:44:02.388Z,15.85
2022-12-11T08:46:33.489Z,10.10
2022-12-11T08:49:00.790Z,14.25
2022-12-11T08:51:29.876Z,7.68
2022-12-11T08:54:00.984Z,13.25
2022-12-11T08:56:29.158Z,9.30
2022-12-11T08:58:59.204Z,9.65
2022-12-11T09:01:28.079Z,8.65
2022-12-11T09:03:56.988Z,14.48
2022-12-11T09:06:26.758Z,10.05
2022-12-11T09:08:56.818Z,6.63
2022-12-11T09:11:31.330Z,5.32
2022-12-11T09:14:03.589Z,5.50
2022-12-11T09:16:38.135Z,12.20
2022-12-11T09:19:16.517Z,8.18
2022-12-11T09:21:45.164Z,6.03
2022-12-11T09:24:13.582Z,6.25
2022-12-11T09:26:44.360Z,3.92
2022-12-11T09:29:12.705Z,14.27
2022-12-11T09:31:40.114Z,10.73
2022-12-11T09:34:10.013Z,10.25
2022-12-11T09:36:40.367Z,12.35
2022-12-11T09:39:09.334Z,5.85
2022-12-11T09:41:41.223Z,6.00
2022-12-11T09:44:35.684Z,5.07
2022-12-11T09:47:03.585Z,5.97
2022-12-11T09:49:39.926Z,5.50
2022-12-11T09:52:21.725Z,10.32
2022-12-11T09:54:59.002Z,8.73
2022-12-11T09:58:21.534Z,9.73
2022-12-11T10:01:10.603Z,5.90
2022-12-11T10:04:22.563Z,9.45
2022-12-11T10:07:30.477Z,7.75
2022-12-11T10:10:17.504Z,8.13
2022-12-11T10:12:50.768Z,11.73
2022-12-11T10:15:37.009Z,6.10
2022-12-11T10:18:11.245Z,9.65
2022-12-11T10:20:43.294Z,12.63
2022-12-11T10:23:20.300Z,6.53
2022-12-11T10:25:56.125Z,10.48
2022-12-11T10:28:25.804Z,5.88
2022-12-11T10:30:56.157Z,8.85
2022-12-11T10:33:37.268Z,13.13
2022-12-11T10:38:45.958Z,9.43
2022-12-11T10:41:24.512Z,8.73
2022-12-11T10:43:56.527Z,12.60
2022-12-11T10:46:29.757Z,5.10
2022-12-11T10:49:01.546Z,7.97
2022-12-11T10:51:32.710Z,5.80
2022-12-11T10:54:36.966Z,5.40
2022-12-11T10:57:07.162Z,14.00
2022-12-11T10:59:43.474Z,4.75
2022-12-11T11:02:27.972Z,9.40
2022-12-11T11:04:56.655Z,4.85
2022-12-11T11:07:32.458Z,9.18
2022-12-11T11:10:05.824Z,6.15
2022-12-11T11:12:43.856Z,6.90
2022-12-11T11:15:17.156Z,5.70
2022-12-11T11:17:54.985Z,5.35
2022-12-11T11:20:27.288Z,5.47
2022-12-11T11:22:58.467Z,6.28
2022-12-11T11:25:36.189Z,6.10
2022-12-11T11:28:07.624Z,5.18
2022-12-11T11:30:37.905Z,6.55
2022-12-11T11:33:20.814Z,4.78
2022-12-11T11:35:59.596Z,6.90
2022-12-11T11:38:32.189Z,4.72
2022-12-11T11:41:14.568Z,5.22
2022-12-11T11:43:50.418Z,6.82
2022-12-11T11:46:31.328Z,7.05
2022-12-11T11:49:04.685Z,3.90
2022-12-11T11:51:39.912Z,2.70
2022-12-11T11:54:48.657Z,4.72
2022-12-11T11:57:23.730Z,6.50
2022-12-11T11:59:56.696Z,5.40
2022-12-11T12:02:24.325Z,6.70
2022-12-11T12:04:52.368Z,7.00
2022-12-11T12:07:28.459Z,3.90
2022-12-11T12:10:15.142Z,5.20
2022-12-11T12:13:48.263Z,7.82
2022-12-11T12:16:50.995Z,3.50
2022-12-11T12:19:14.133Z,3.25
2022-12-11T12:21:48.222Z,2.88
2022-12-11T12:24:43.375Z,3.08
2022-12-11T12:27:52.070Z,7.88
2022-12-11T12:30:23.892Z,3.42
2022-12-11T12:33:29.905Z,7.57
2022-12-11T12:36:08.932Z,5.38
2022-12-11T12:38:51.057Z,3.83
2022-12-11T12:41:48.004Z,7.03
2022-12-11T12:44:18.410Z,9.18
2022-12-11T12:50:03.114Z,4.18
2022-12-11T12:52:36.591Z,9.15
2022-12-11T12:55:14.424Z,4.65
2022-12-11T12:57:58.666Z,7.93
2022-12-11T13:00:38.173Z,6.80
2022-12-11T13:03:32.216Z,3.50
2022-12-11T13:06:07.207Z,4.43
2022-12-11T13:08:53.401Z,5.40
2022-12-11T13:11:31.380Z,5.97
2022-12-11T13:14:05.647Z,6.28
2022-12-11T13:16:41.686Z,8.43
2022-12-11T13:19:23.904Z,8.32
2022-12-11T13:22:00.181Z,7.97
2022-12-11T13:24:30.105Z,9.75
2022-12-11T13:27:08.631Z,15.23
2022-12-11T13:29:42.423Z,12.95
2022-12-11T13:32:09.771Z,10.25
2022-12-11T13:34:40.786Z,12.13
2022-12-11T13:37:37.035Z,11.10
2022-12-11T13:40:20.377Z,10.75
2022-12-11T13:42:57.230Z,12.85
2022-12-11T13:46:00.344Z,12.15
2022-12-11T13:48:41.335Z,16.25
2022-12-11T13:51:16.546Z,10.40
2022-12-11T13:53:44.561Z,12.10
2022-12-11T13:56:20.791Z,18.23
2022-12-11T13:58:51.216Z,14.45
2022-12-11T14:01:31.418Z,15.82
2022-12-11T14:04:19.317Z,30.20
2022-12-11T14:06:47.342Z,39.88
2022-12-11T14:09:23.957Z,13.27
2022-12-11T14:11:56.823Z,6.63
2022-12-11T14:14:34.547Z,7.40
2022-12-11T14:17:02.710Z,7.70
2022-12-11T14:19:30.060Z,14.93
2022-12-11T14:22:03.695Z,9.88
2022-12-11T14:24:34.291Z,10.63
2022-12-11T14:27:05.442Z,13.38
2022-12-11T14:29:34.018Z,9.93
2022-12-11T14:32:05.325Z,8.35
2022-12-11T14:34:37.287Z,9.95
2022-12-11T14:37:08.440Z,9.73
2022-12-11T14:39:43.050Z,6.10
2022-12-11T14:42:20.207Z,3.40
2022-12-11T14:44:53.832Z,4.68
2022-12-11T14:47:25.595Z,2.47
2022-12-11T14:50:23.408Z,2.40
2022-12-11T14:52:59.834Z,13.10
2022-12-11T14:55:33.073Z,2.60
2022-12-11T14:58:04.340Z,3.22
2022-12-11T15:03:06.984Z,5.43
2022-12-11T15:05:40.670Z,7.25
2022-12-11T15:08:11.002Z,8.07
2022-12-11T15:10:43.010Z,3.60
2022-12-11T15:13:11.037Z,4.07
2022-12-11T15:15:47.859Z,3.40
2022-12-11T15:18:36.786Z,3.22
2022-12-11T15:21:07.478Z,2.40
2022-12-11T15:26:35.011Z,7.43
2022-12-11T15:29:23.994Z,9.50
2022-12-11T15:32:11.313Z,3.53
2022-12-11T15:34:46.151Z,7.80
2022-12-11T15:37:36.460Z,10.02
2022-12-11T15:40:04.904Z,3.80
2022-12-11T15:42:39.318Z,4.97
2022-12-11T15:45:10.212Z,6.75
2022-12-11T15:47:37.790Z,4.30
2022-12-11T15:53:46.326Z,6.97
2022-12-11T15:56:16.319Z,24.88
2022-12-11T15:58:46.548Z,17.73
2022-12-11T16:01:13.712Z,24.85
2022-12-11T16:03:40.978Z,24.27
2022-12-11T16:06:14.247Z,8.32
2022-12-11T16:08:41.799Z,19.52
2022-12-11T16:11:13.979Z,15.38
2022-12-11T16:13:41.092Z,15.40
2022-12-11T16:16:08.470Z,9.98
2022-12-11T16:18:35.709Z,13.27
2022-12-11T16:21:06.488Z,8.18
2022-12-11T16:23:33.597Z,10.48
2022-12-11T16:26:07.451Z,11.02
2022-12-11T16:28:43.616Z,13.98
2022-12-11T16:31:12.959Z,9.80
2022-12-11T16:33:47.518Z,13.45
2022-12-11T16:36:19.961Z,12.10
2022-12-11T16:38:53.582Z,15.95
2022-12-11T16:41:21.495Z,9.43
2022-12-11T16:43:48.628Z,6.13
2022-12-11T16:46:20.092Z,5.88
2022-12-11T16:48:47.397Z,4.90
2022-12-11T16:51:15.015Z,3.92
2022-12-11T16:53:42.355Z,4.90
2022-12-11T16:56:09.517Z,9.68
2022-12-11T16:58:36.877Z,3.97
2022-12-11T17:01:15.186Z,5.40
2022-12-11T17:03:43.680Z,4.68
2022-12-11T17:06:12.927Z,7.57
2022-12-11T17:08:40.525Z,4.72
2022-12-11T17:11:13.506Z,4.30
2022-12-11T17:13:41.231Z,13.07
2022-12-11T17:16:14.670Z,13.65
2022-12-11T17:18:44.561Z,6.97
2022-12-11T17:21:14.627Z,8.23
2022-12-11T17:23:42.617Z,3.63
2022-12-11T17:26:10.235Z,2.80
2022-12-11T17:28:38.359Z,4.18
2022-12-11T17:31:08.091Z,5.32
2022-12-11T17:33:35.434Z,2.67
2022-12-11T17:36:04.521Z,7.85
2022-12-11T17:38:32.182Z,8.32
2022-12-11T17:40:59.428Z,7.10
2022-12-11T17:43:27.126Z,7.63
2022-12-11T17:45:55.685Z,8.68
2022-12-11T17:48:22.982Z,8.52
2022-12-11T17:50:52.390Z,10.32
2022-12-11T17:53:23.481Z,7.03
2022-12-11T17:55:52.279Z,4.65
2022-12-11T17:59:10.085Z,8.93
2022-12-11T18:02:02.849Z,14.10
2022-12-11T18:04:59.646Z,6.47
2022-12-11T18:07:26.848Z,6.53
2022-12-11T18:09:54.054Z,9.85
2022-12-11T18:12:20.974Z,7.70
2022-12-11T18:14:48.285Z,12.40
2022-12-11T18:17:15.451Z,15.02
2022-12-11T18:19:46.016Z,6.85
2022-12-11T18:22:13.513Z,9.52
2022-12-11T18:24:40.783Z,7.75
2022-12-11T18:27:11.038Z,10.48
2022-12-11T18:29:38.364Z,8.48
2022-12-11T18:32:06.117Z,8.18
2022-12-11T18:34:33.400Z,11.30
2022-12-11T18:37:00.495Z,7.65
2022-12-11T18:39:27.551Z,4.72
2022-12-11T18:42:30.632Z,4.97
2022-12-11T18:44:43.513Z,4.22
2022-12-11T18:47:10.717Z,3.53
2022-12-11T18:49:38.755Z,4.75
2022-12-11T18:52:06.260Z,6.82
2022-12-11T18:54:35.694Z,4.35
2022-12-11T18:57:09.555Z,5.85
2022-12-11T18:59:36.808Z,10.10
2022-12-11T19:02:12.464Z,7.53
2022-12-11T19:05:05.620Z,6.05
2022-12-11T19:07:33.746Z,7.20
2022-12-11T19:10:01.358Z,4.80
2022-12-11T19:12:28.594Z,5.55
2022-12-11T19:14:55.611Z,5.68
2022-12-11T19:17:22.917Z,5.70
2022-12-11T19:19:50.460Z,7.63
2022-12-11T19:22:20.611Z,11.75
2022-12-11T19:24:47.770Z,5.43
2022-12-11T19:27:14.707Z,5.45
2022-12-11T19:29:42.371Z,4.82
2022-12-11T19:32:09.953Z,8.05
2022-12-11T19:34:38.622Z,8.48
2022-12-11T19:37:06.173Z,6.90
2022-12-11T19:39:33.314Z,9.75
2022-12-11T19:42:00.567Z,11.43
2022-12-11T19:44:27.622Z,17.40
2022-12-11T19:46:54.798Z,13.95
2022-12-11T19:49:21.911Z,14.88
2022-12-11T19:51:49.345Z,13.20
2022-12-11T19:54:18.087Z,8.05
2022-12-11T19:56:45.862Z,9.63
2022-12-11T19:59:16.837Z,5.65
2022-12-11T20:01:47.999Z,4.15
2022-12-11T20:04:16.754Z,8.10
2022-12-11T20:06:46.107Z,5.88
2022-12-11T20:09:14.393Z,6.18
2022-12-11T20:11:44.185Z,6.00
2022-12-11T20:14:20.241Z,6.97
2022-12-11T20:17:09.751Z,4.68
2022-12-11T20:19:35.529Z,10.20
2022-12-11T20:22:02.903Z,4.88
2022-12-11T20:25:12.190Z,5.03
2022-12-11T20:27:53.759Z,4.45
2022-12-11T20:30:46.014Z,7.47
2022-12-11T20:33:13.305Z,9.55
2022-12-11T20:35:41.370Z,10.55
2022-12-11T20:38:08.538Z,11.40
2022-12-11T20:40:35.758Z,7.63
2022-12-11T20:43:02.938Z,9.02
2022-12-11T20:45:32.894Z,9.68
2022-12-11T20:48:00.217Z,11.00
2022-12-11T20:50:27.200Z,8.02
2022-12-11T20:52:54.313Z,10.63
2022-12-11T20:55:21.259Z,8.98
2022-12-11T20:57:48.494Z,10.30
2022-12-11T21:00:16.095Z,12.40
2022-12-11T21:02:43.995Z,10.45
2022-12-11T21:05:11.691Z,14.90
2022-12-11T21:07:39.097Z,11.05
2022-12-11T21:10:09.368Z,10.80
2022-12-11T21:12:38.543Z,7.78
2022-12-11T21:15:06.282Z,9.27
2022-12-11T21:17:34.749Z,10.77
2022-12-11T21:20:02.868Z,9.45
2022-12-11T21:22:30.132Z,8.30
2022-12-11T21:24:57.252Z,7.82
2022-12-11T21:27:24.886Z,7.53
2022-12-11T21:29:52.455Z,8.07
2022-12-11T21:32:21.014Z,7.30
2022-12-11T21:34:50.593Z,7.85
2022-12-11T21:37:20.489Z,7.50
2022-12-11T21:39:47.449Z,8.43
2022-12-11T21:42:14.637Z,7.13
2022-12-11T21:45:37.671Z,10.25
2022-12-11T21:47:33.113Z,9.57
2022-12-11T21:50:00.166Z,14.90
2022-12-11T21:52:27.312Z,8.25
2022-12-11T21:54:54.193Z,9.73
2022-12-11T21:57:26.760Z,8.80
2022-12-11T21:59:53.926Z,8.63
2022-12-11T22:02:21.256Z,9.60
2022-12-11T22:04:48.283Z,9.88
2022-12-11T22:07:16.468Z,8.25
2022-12-11T22:09:44.062Z,11.43
2022-12-11T22:12:23.489Z,11.18
2022-12-11T22:14:51.067Z,9.27
2022-12-11T22:17:19.187Z,10.38
2022-12-11T22:19:47.380Z,11.32
2022-12-11T22:22:14.937Z,11.05
2022-12-11T22:24:41.909Z,11.45
2022-12-11T22:27:09.554Z,11.82
2022-12-11T22:29:37.271Z,9.57
2022-12-11T22:32:05.203Z,10.57
2022-12-11T22:34:32.225Z,12.00
2022-12-11T22:37:00.256Z,12.32
2022-12-11T22:39:27.335Z,11.82
2022-12-11T22:41:54.536Z,12.02
2022-12-11T22:44:21.910Z,9.85
2022-12-11T22:46:50.405Z,14.43
2022-12-11T22:49:19.063Z,10.95
2022-12-11T22:51:46.542Z,13.43
2022-12-11T22:54:13.697Z,12.85
2022-12-11T22:56:41.048Z,10.02
2022-12-11T22:59:07.992Z,11.20
2022-12-11T23:01:35.311Z,10.23
2022-12-11T23:04:02.794Z,10.90
2022-12-11T23:06:29.766Z,14.98
2022-12-11T23:09:00.897Z,11.98
2022-12-11T23:11:31.509Z,13.57
2022-12-11T23:13:59.060Z,12.40
2022-12-11T23:16:27.665Z,15.73
2022-12-11T23:18:56.432Z,11.30
2022-12-11T23:21:25.432Z,14.00
2022-12-11T23:23:52.709Z,14.30
2022-12-11T23:26:19.925Z,14.50
2022-12-11T23:28:47.946Z,17.23
2022-12-11T23:31:16.107Z,14.25
2022-12-11T23:33:43.241Z,16.45
2022-12-11T23:36:10.575Z,16.83
2022-12-11T23:38:38.539Z,13.05
2022-12-11T23:41:08.667Z,13.10
2022-12-11T23:43:37.589Z,14.93
2022-12-11T23:46:07.748Z,15.45
2022-12-11T23:48:35.030Z,17.33
2022-12-11T23:51:03.955Z,13.23
2022-12-11T23:53:31.519Z,16.88
2022-12-11T23:56:06.299Z,18.15
2022-12-11T23:58:36.253Z,18.02
